Time;durP1;ratioP1;P1;durP2;ratioP2;P2;SDS_P1;SDS_P2;PMS_P1;PMS_P2;Temp;Humidity;BMP_temperature;BMP_pressure;BME280_temperature;BME280_humidity;BME280_pressure;Samples;Min_cycle;Max_cycle;Signal;HPM_P1;HPM_P2
2023/07/18 00:02:05;;;;;;;7.68;3.03;;;13.60;99.90;;;;;;5051477;28;20560;-75
2023/07/18 00:04:31;;;;;;;7.07;3.17;;;13.60;99.90;;;;;;5050595;28;20052;-75
2023/07/18 00:06:58;;;;;;;10.60;3.35;;;13.60;99.90;;;;;;5051261;28;20052;-75
2023/07/18 00:09:24;;;;;;;10.55;3.85;;;13.50;99.90;;;;;;5051470;28;20045;-75
2023/07/18 00:11:50;;;;;;;8.27;3.35;;;13.60;99.90;;;;;;5051516;28;20049;-75
2023/07/18 00:14:16;;;;;;;8.23;3.10;;;13.60;99.90;;;;;;5051108;28;20055;-75
2023/07/18 00:16:44;;;;;;;8.48;3.15;;;13.60;99.90;;;;;;5056052;28;20439;-75
2023/07/18 00:19:12;;;;;;;10.27;3.30;;;13.60;99.90;;;;;;5054922;28;20045;-75
2023/07/18 00:21:38;;;;;;;8.00;3.05;;;13.60;99.90;;;;;;5055887;28;20166;-75
2023/07/18 00:24:05;;;;;;;8.35;3.20;;;13.60;99.90;;;;;;5056458;28;20163;-75
2023/07/18 00:26:31;;;;;;;7.78;3.00;;;13.50;99.90;;;;;;5055660;28;20099;-75
2023/07/18 00:28:56;;;;;;;8.77;3.03;;;13.50;99.90;;;;;;5054458;28;20095;-75
2023/07/18 00:31:22;;;;;;;10.15;2.92;;;13.50;99.90;;;;;;5055879;28;20041;-75
2023/07/18 00:33:56;;;;;;;12.65;3.80;;;13.50;99.90;;;;;;5055317;28;20041;-75
2023/07/18 00:36:21;;;;;;;10.82;3.55;;;13.50;99.90;;;;;;5054798;28;20124;-75
2023/07/18 00:38:47;;;;;;;9.32;3.50;;;13.50;99.90;;;;;;5054765;28;20179;-75
2023/07/18 00:41:13;;;;;;;8.35;3.30;;;13.50;99.90;;;;;;5053482;28;20075;-75
2023/07/18 00:43:38;;;;;;;9.27;3.40;;;13.50;99.90;;;;;;5037501;28;20088;-75
2023/07/18 00:46:05;;;;;;;8.40;3.30;;;13.40;99.90;;;;;;5037620;28;20072;-75
2023/07/18 00:48:32;;;;;;;10.43;3.30;;;13.50;99.90;;;;;;5055197;28;20400;-75
2023/07/18 00:51:00;;;;;;;7.65;3.40;;;13.50;99.90;;;;;;5056176;28;20048;-75
2023/07/18 00:53:27;;;;;;;10.80;3.97;;;13.50;99.90;;;;;;5053294;28;20048;-75
2023/07/18 00:55:54;;;;;;;9.30;3.38;;;13.40;99.90;;;;;;5055676;28;20467;-75
2023/07/18 00:58:21;;;;;;;7.43;3.50;;;13.40;99.90;;;;;;5054050;28;20083;-75
2023/07/18 01:00:46;;;;;;;7.13;3.67;;;13.40;99.90;;;;;;5053619;28;20102;-75
2023/07/18 01:03:12;;;;;;;6.85;3.33;;;13.40;99.90;;;;;;5052795;28;20042;-75
2023/07/18 01:05:39;;;;;;;7.22;3.78;;;13.30;99.90;;;;;;5034338;28;20060;-75
2023/07/18 01:08:05;;;;;;;8.82;3.58;;;13.30;99.90;;;;;;5035158;28;20053;-75
2023/07/18 01:10:30;;;;;;;10.05;4.72;;;13.40;99.90;;;;;;5035721;28;20050;-75
2023/07/18 01:12:58;;;;;;;9.60;3.50;;;13.40;99.90;;;;;;5034067;28;20124;-75
2023/07/18 01:15:31;;;;;;;10.05;3.97;;;13.30;99.90;;;;;;5033523;28;20041;-75
2023/07/18 01:17:57;;;;;;;7.95;3.47;;;13.30;99.90;;;;;;5034150;28;20444;-75
2023/07/18 01:20:27;;;;;;;9.88;3.50;;;13.30;99.90;;;;;;5035808;28;20045;-75
2023/07/18 01:23:03;;;;;;;9.00;4.00;;;13.20;99.90;;;;;;5033741;28;20128;-75
2023/07/18 01:25:30;;;;;;;10.05;4.10;;;13.20;99.90;;;;;;5034635;28;20051;-75
2023/07/18 01:27:56;;;;;;;9.30;3.95;;;13.20;99.90;;;;;;5033705;28;20053;-75
2023/07/18 01:30:27;;;;;;;9.32;4.20;;;13.20;99.90;;;;;;5034421;28;20049;-75
2023/07/18 01:32:53;;;;;;;11.90;4.55;;;13.20;99.90;;;;;;5035121;28;20074;-75
2023/07/18 01:35:25;;;;;;;10.07;4.00;;;13.20;99.90;;;;;;5042527;28;20116;-75
2023/07/18 01:37:54;;;;;;;12.43;4.22;;;13.20;99.90;;;;;;5055073;28;20137;-75
2023/07/18 01:40:22;;;;;;;8.73;4.20;;;13.20;99.90;;;;;;5053699;28;20044;-75
2023/07/18 01:42:51;;;;;;;9.05;3.58;;;13.20;99.90;;;;;;5053556;28;20404;-75
2023/07/18 01:45:22;;;;;;;7.70;3.47;;;13.20;99.90;;;;;;5053391;28;20107;-75
2023/07/18 01:47:49;;;;;;;9.43;3.88;;;13.10;99.90;;;;;;5053096;28;20045;-75
2023/07/18 01:50:15;;;;;;;9.23;4.07;;;13.10;99.90;;;;;;5053888;28;20052;-75
2023/07/18 01:52:41;;;;;;;8.13;3.95;;;13.10;99.90;;;;;;5053247;28;20128;-74
2023/07/18 01:55:07;;;;;;;8.52;4.00;;;13.20;99.90;;;;;;5052934;28;20120;-75
2023/07/18 01:57:35;;;;;;;9.73;4.40;;;13.10;99.90;;;;;;5051845;28;20041;-75
2023/07/18 02:00:02;;;;;;;9.73;4.07;;;13.00;99.90;;;;;;5053263;28;20396;-75
2023/07/18 02:02:28;;;;;;;12.00;4.45;;;13.10;99.90;;;;;;5053447;28;20119;-75
2023/07/18 02:04:56;;;;;;;14.52;4.22;;;13.00;99.90;;;;;;5052540;28;20068;-75
2023/07/18 02:07:25;;;;;;;11.45;4.13;;;13.10;99.90;;;;;;5054821;28;20581;-74
2023/07/18 02:09:51;;;;;;;10.93;4.38;;;13.00;99.90;;;;;;5053113;28;20047;-74
2023/07/18 02:12:17;;;;;;;8.27;4.40;;;13.00;99.90;;;;;;5053856;28;20049;-74
2023/07/18 02:14:43;;;;;;;11.48;4.57;;;13.10;99.90;;;;;;5053111;28;20462;-74
2023/07/18 02:17:09;;;;;;;9.73;4.13;;;13.00;99.90;;;;;;5052838;28;20076;-74
2023/07/18 02:19:37;;;;;;;11.80;4.65;;;13.10;99.90;;;;;;5053548;28;20132;-74
2023/07/18 02:22:03;;;;;;;9.75;4.05;;;13.00;99.90;;;;;;5052980;28;20048;-74
2023/07/18 02:24:30;;;;;;;9.45;4.60;;;13.00;99.90;;;;;;5053360;28;20045;-74
2023/07/18 02:26:58;;;;;;;13.43;5.00;;;13.10;99.90;;;;;;5054069;28;20041;-74
2023/07/18 02:29:25;;;;;;;9.20;4.55;;;13.10;99.90;;;;;;5053263;28;20087;-74
2023/07/18 02:31:53;;;;;;;12.07;4.05;;;13.10;99.90;;;;;;5051951;28;20079;-74
2023/07/18 02:34:19;;;;;;;9.60;4.60;;;13.00;99.90;;;;;;5053174;28;20480;-74
2023/07/18 02:36:45;;;;;;;9.73;4.40;;;13.00;99.90;;;;;;5052542;28;20072;-74
2023/07/18 02:39:11;;;;;;;11.30;4.47;;;13.00;99.90;;;;;;5052693;28;20044;-74
2023/07/18 02:41:37;;;;;;;10.20;3.95;;;13.00;99.90;;;;;;5053872;28;20044;-74
2023/07/18 02:44:04;;;;;;;9.68;4.00;;;13.00;99.90;;;;;;5052443;28;20128;-74
2023/07/18 02:46:30;;;;;;;14.98;4.25;;;13.10;99.90;;;;;;5053195;28;20033;-74
2023/07/18 02:48:59;;;;;;;7.00;3.97;;;13.00;99.90;;;;;;5053642;28;20044;-74
2023/07/18 02:51:24;;;;;;;10.15;3.85;;;11.80;99.90;;;;;;5052693;28;20041;-74
2023/07/18 02:53:52;;;;;;;8.82;4.35;;;12.90;99.90;;;;;;5050931;28;20823;-74
2023/07/18 02:56:18;;;;;;;10.15;4.78;;;12.90;99.90;;;;;;5053853;28;20133;-74
2023/07/18 02:58:48;;;;;;;10.63;4.00;;;12.90;99.90;;;;;;5053242;28;20041;-74
2023/07/18 03:01:14;;;;;;;6.93;3.67;;;12.90;99.90;;;;;;5052786;28;20044;-74
2023/07/18 03:03:40;;;;;;;10.32;4.55;;;12.90;99.90;;;;;;5052015;28;20052;-74
2023/07/18 03:06:12;;;;;;;14.40;4.63;;;12.90;99.90;;;;;;5051952;28;20048;-74
2023/07/18 03:08:37;;;;;;;11.75;4.28;;;12.90;99.90;;;;;;5051005;28;20116;-74
2023/07/18 03:11:06;;;;;;;8.98;4.25;;;12.90;99.90;;;;;;5052012;28;20131;-74
2023/07/18 03:13:33;;;;;;;10.02;4.07;;;12.90;99.90;;;;;;5051101;28;20493;-73
2023/07/18 03:15:59;;;;;;;11.00;4.28;;;12.90;99.90;;;;;;5051679;28;20131;-73
2023/07/18 03:18:25;;;;;;;14.38;4.28;;;12.90;99.90;;;;;;5051804;28;20457;-73
2023/07/18 03:20:51;;;;;;;7.78;3.88;;;12.90;99.90;;;;;;5051793;28;20075;-73
2023/07/18 03:23:17;;;;;;;9.88;4.07;;;12.80;99.90;;;;;;5051900;28;20516;-74
2023/07/18 03:25:42;;;;;;;8.50;4.10;;;12.80;99.90;;;;;;5051313;28;20037;-74
2023/07/18 03:28:09;;;;;;;10.73;4.32;;;12.80;99.90;;;;;;5051082;28;20076;-74
2023/07/18 03:30:34;;;;;;;8.98;4.43;;;12.80;99.90;;;;;;5051303;28;20461;-74
2023/07/18 03:33:00;;;;;;;7.88;3.92;;;12.90;99.90;;;;;;5051602;28;20073;-74
2023/07/18 03:35:26;;;;;;;10.38;4.00;;;12.80;99.90;;;;;;5050527;28;20118;-74
2023/07/18 03:37:51;;;;;;;8.73;4.10;;;12.80;99.90;;;;;;5050695;28;20076;-73
2023/07/18 03:40:17;;;;;;;6.85;3.65;;;12.90;99.90;;;;;;5039342;28;20057;-73
2023/07/18 03:42:44;;;;;;;8.05;3.88;;;12.90;99.90;;;;;;5040073;28;20523;-74
2023/07/18 03:45:16;;;;;;;11.15;4.38;;;12.90;99.90;;;;;;5042265;28;20037;-73
2023/07/18 03:47:45;;;;;;;13.07;3.90;;;12.90;99.90;;;;;;5031776;28;20037;-73
2023/07/18 03:50:13;;;;;;;10.13;3.67;;;13.00;99.90;;;;;;5045446;28;20045;-74
2023/07/18 03:52:39;;;;;;;8.55;3.88;;;13.00;99.90;;;;;;5047480;28;20044;-75
2023/07/18 03:55:06;;;;;;;10.05;3.72;;;13.10;99.90;;;;;;5052640;28;20056;-75
2023/07/18 03:57:33;;;;;;;8.35;4.00;;;13.10;99.90;;;;;;5051011;28;20091;-74
2023/07/18 03:59:58;;;;;;;9.48;4.18;;;13.10;99.90;;;;;;5051170;28;20507;-75
2023/07/18 04:02:24;;;;;;;10.98;4.07;;;13.20;99.90;;;;;;5051146;28;20052;-74
2023/07/18 04:04:50;;;;;;;10.55;4.00;;;13.20;99.90;;;;;;5050032;28;20072;-75
2023/07/18 04:07:18;;;;;;;8.23;4.13;;;13.30;99.90;;;;;;5051462;28;20084;-75
2023/07/18 04:09:44;;;;;;;7.07;3.55;;;13.30;99.90;;;;;;5052177;28;20049;-74
2023/07/18 04:12:10;;;;;;;8.80;4.05;;;13.30;99.90;;;;;;5049862;28;20045;-74
2023/07/18 04:14:35;;;;;;;10.13;4.32;;;13.30;99.90;;;;;;5043899;28;20073;-75
2023/07/18 04:17:02;;;;;;;11.27;4.13;;;13.40;99.90;;;;;;5030294;28;20489;-75
2023/07/18 04:19:29;;;;;;;9.63;3.88;;;13.40;99.90;;;;;;5038610;28;20043;-76
2023/07/18 04:21:55;;;;;;;8.32;3.92;;;13.50;99.90;;;;;;5050393;28;20127;-76
2023/07/18 04:24:24;;;;;;;8.85;3.60;;;13.40;99.90;;;;;;5049408;28;20045;-75
2023/07/18 04:26:50;;;;;;;8.55;4.57;;;13.50;99.90;;;;;;5049914;28;20496;-75
2023/07/18 04:29:17;;;;;;;7.50;3.72;;;13.50;99.90;;;;;;5050343;28;20053;-75
2023/07/18 04:31:42;;;;;;;11.90;4.28;;;13.80;99.90;;;;;;5049499;28;20120;-74
2023/07/18 04:34:08;;;;;;;10.55;3.85;;;13.60;99.90;;;;;;5048746;28;20145;-74
2023/07/18 04:36:34;;;;;;;8.80;3.75;;;13.60;99.90;;;;;;5050692;28;20041;-74
2023/07/18 04:39:00;;;;;;;9.95;4.00;;;13.60;99.90;;;;;;5050502;28;20175;-74
2023/07/18 04:41:26;;;;;;;8.82;3.85;;;13.70;99.90;;;;;;5051412;28;20044;-74
2023/07/18 04:43:52;;;;;;;9.90;3.92;;;13.70;99.90;;;;;;5051317;28;20475;-74
2023/07/18 04:46:18;;;;;;;10.73;4.18;;;13.80;99.90;;;;;;5050921;28;20049;-74
2023/07/18 04:48:47;;;;;;;11.25;3.75;;;13.80;99.90;;;;;;5051130;28;20116;-74
2023/07/18 04:51:13;;;;;;;10.05;4.68;;;13.80;99.90;;;;;;5051931;28;20060;-74
2023/07/18 04:53:38;;;;;;;9.00;3.80;;;13.90;99.90;;;;;;5051977;28;20123;-74
2023/07/18 04:56:05;;;;;;;9.30;4.13;;;13.90;99.90;;;;;;5051564;28;20087;-75
2023/07/18 04:58:31;;;;;;;9.15;3.95;;;13.90;99.90;;;;;;5051916;28;20041;-75
2023/07/18 05:00:59;;;;;;;11.30;3.95;;;14.00;99.90;;;;;;5052089;28;20045;-75
2023/07/18 05:03:26;;;;;;;8.18;4.07;;;14.00;99.90;;;;;;5055030;28;20041;-75
2023/07/18 05:05:52;;;;;;;10.20;4.22;;;14.10;99.90;;;;;;5054029;28;20096;-75
2023/07/18 05:08:18;;;;;;;9.27;3.90;;;14.10;99.90;;;;;;5054810;28;20044;-75
2023/07/18 05:10:44;;;;;;;11.88;4.38;;;14.10;99.90;;;;;;5053965;28;20049;-75
2023/07/18 05:13:10;;;;;;;10.05;4.47;;;14.20;99.90;;;;;;5053999;28;20052;-75
2023/07/18 05:15:36;;;;;;;9.32;3.70;;;14.20;99.90;;;;;;5055028;28;20124;-75
2023/07/18 05:18:03;;;;;;;12.10;4.53;;;14.30;99.90;;;;;;5055441;28;20049;-75
2023/07/18 05:20:28;;;;;;;12.25;4.10;;;14.40;99.90;;;;;;5053090;28;20057;-76
2023/07/18 05:22:54;;;;;;;10.93;4.22;;;14.50;99.90;;;;;;5053697;28;20059;-75
2023/07/18 05:25:26;;;;;;;13.10;4.55;;;14.70;99.90;;;;;;5055319;28;20049;-75
2023/07/18 05:27:52;;;;;;;13.30;4.60;;;14.70;99.90;;;;;;5052658;28;20048;-74
2023/07/18 05:30:19;;;;;;;13.02;4.90;;;14.80;99.90;;;;;;5053918;28;20389;-75
2023/07/18 05:32:45;;;;;;;9.23;4.88;;;14.80;99.90;;;;;;5053735;28;20135;-74
2023/07/18 05:35:15;;;;;;;11.40;4.93;;;14.90;99.90;;;;;;5052924;28;20473;-75
2023/07/18 05:37:42;;;;;;;10.25;4.78;;;15.00;99.90;;;;;;5053097;28;20469;-75
2023/07/18 05:40:11;;;;;;;8.63;4.38;;;15.10;99.90;;;;;;5053718;28;20480;-74
2023/07/18 05:42:41;;;;;;;10.90;4.72;;;15.20;99.90;;;;;;5052680;28;20126;-74
2023/07/18 05:45:08;;;;;;;10.82;4.40;;;15.30;99.90;;;;;;5053771;28;20080;-75
2023/07/18 05:47:35;;;;;;;13.18;4.35;;;15.30;99.90;;;;;;5053609;28;20392;-74
2023/07/18 05:50:01;;;;;;;12.02;4.78;;;15.40;99.90;;;;;;5054448;28;20072;-74
2023/07/18 05:52:27;;;;;;;13.55;4.53;;;15.50;99.90;;;;;;5053417;28;20045;-74
2023/07/18 05:54:53;;;;;;;9.63;3.95;;;15.60;99.90;;;;;;5054459;28;20102;-75
2023/07/18 05:57:19;;;;;;;14.55;4.20;;;15.70;99.90;;;;;;5052750;28;20511;-75
2023/07/18 05:59:45;;;;;;;10.90;3.67;;;15.70;99.90;;;;;;5054687;28;20389;-74
2023/07/18 06:02:11;;;;;;;11.82;4.20;;;15.80;99.90;;;;;;5053006;28;20484;-75
2023/07/18 06:04:37;;;;;;;13.40;4.97;;;15.90;99.90;;;;;;5053487;28;20044;-74
2023/07/18 06:07:04;;;;;;;10.65;3.80;;;15.80;99.90;;;;;;5053379;28;20362;-75
2023/07/18 06:09:29;;;;;;;10.73;4.05;;;15.90;99.90;;;;;;5052752;28;20044;-74
2023/07/18 06:11:55;;;;;;;10.45;4.65;;;15.80;99.90;;;;;;5052646;28;20060;-75
2023/07/18 06:14:24;;;;;;;11.20;4.00;;;15.80;99.90;;;;;;5032795;28;20041;-75
2023/07/18 06:16:50;;;;;;;10.20;4.05;;;15.80;99.90;;;;;;5033444;28;20128;-74
2023/07/18 06:19:15;;;;;;;11.55;3.90;;;15.90;99.90;;;;;;5034448;28;20540;-75
2023/07/18 06:21:41;;;;;;;9.95;4.05;;;16.00;99.90;;;;;;5032936;28;20076;-75
2023/07/18 06:24:08;;;;;;;11.60;4.20;;;16.20;99.90;;;;;;5050237;28;20053;-75
2023/07/18 06:26:33;;;;;;;14.43;4.40;;;16.30;99.90;;;;;;5052858;28;20374;-75
2023/07/18 06:28:59;;;;;;;9.45;4.30;;;16.40;99.90;;;;;;5052917;28;20116;-75
2023/07/18 06:31:28;;;;;;;13.02;3.63;;;16.50;99.90;;;;;;5052279;28;20048;-75
2023/07/18 06:33:54;;;;;;;9.88;3.58;;;16.60;99.90;;;;;;5051968;28;20111;-74
2023/07/18 06:36:21;;;;;;;9.30;3.70;;;16.70;99.90;;;;;;5052470;28;20041;-73
2023/07/18 06:38:47;;;;;;;11.05;3.30;;;16.70;99.90;;;;;;5044757;28;20124;-75
2023/07/18 06:41:12;;;;;;;12.45;3.50;;;16.80;99.90;;;;;;5043893;28;20094;-75
2023/07/18 06:43:39;;;;;;;6.45;2.20;;;17.00;99.90;;;;;;5033398;28;20056;-74
2023/07/18 06:46:05;;;;;;;6.38;2.78;;;17.10;99.90;;;;;;5047932;28;20277;-75
2023/07/18 06:48:33;;;;;;;7.45;2.78;;;17.30;99.90;;;;;;5050794;28;20127;-73
2023/07/18 06:50:59;;;;;;;8.25;2.42;;;17.50;99.90;;;;;;5051741;28;20124;-75
2023/07/18 06:53:25;;;;;;;6.38;2.05;;;17.70;99.90;;;;;;5050139;28;20132;-75
2023/07/18 06:55:51;;;;;;;4.53;1.40;;;17.80;99.90;;;;;;5033684;28;20041;-75
2023/07/18 06:58:18;;;;;;;4.22;1.60;;;17.90;99.90;;;;;;5033704;28;20087;-75
2023/07/18 07:00:44;;;;;;;4.65;1.70;;;17.90;99.90;;;;;;5031723;28;20132;-75
2023/07/18 07:03:10;;;;;;;3.45;1.60;;;18.00;99.90;;;;;;5043592;28;20090;-75
2023/07/18 07:05:42;;;;;;;3.90;1.80;;;18.10;99.90;;;;;;5037954;28;20513;-74
2023/07/18 07:08:09;;;;;;;4.88;1.45;;;18.30;99.90;;;;;;5032544;28;20056;-75
2023/07/18 07:10:36;;;;;;;3.92;1.60;;;18.40;99.90;;;;;;5031777;28;20033;-74
2023/07/18 07:13:03;;;;;;;3.85;1.90;;;18.40;99.90;;;;;;5031426;28;20146;-73
2023/07/18 07:15:29;;;;;;;4.05;1.60;;;18.50;99.90;;;;;;5030717;28;20065;-73
2023/07/18 07:17:55;;;;;;;6.50;2.15;;;18.60;99.90;;;;;;5031522;28;20519;-73
2023/07/18 07:20:20;;;;;;;4.10;1.30;;;18.60;99.90;;;;;;5046162;28;20093;-73
2023/07/18 07:22:47;;;;;;;3.88;1.45;;;18.70;99.90;;;;;;5048985;28;20053;-73
2023/07/18 07:25:14;;;;;;;4.45;1.63;;;18.70;99.90;;;;;;5050053;28;20461;-73
2023/07/18 07:27:43;;;;;;;4.18;1.27;;;18.90;99.90;;;;;;5043842;28;20042;-73
2023/07/18 07:30:17;;;;;;;5.75;1.52;;;19.00;99.90;;;;;;5033129;28;20042;-74
2023/07/18 07:32:53;;;;;;;4.13;1.50;;;19.70;99.90;;;;;;5030289;28;20102;-74
2023/07/18 07:35:24;;;;;;;;;;;20.60;99.90;;;;;;5034079;28;20046;-75
2023/07/18 07:37:51;;;;;;;4.22;1.40;;;21.50;99.90;;;;;;5031900;28;19928;-75
2023/07/18 07:40:20;;;;;;;4.28;1.20;;;22.20;99.90;;;;;;5032782;28;20104;-75
2023/07/18 07:42:46;;;;;;;3.40;1.30;;;22.90;99.90;;;;;;5032316;28;20126;-74
2023/07/18 07:45:13;;;;;;;2.67;1.10;;;23.40;99.90;;;;;;5032188;28;20485;-75
2023/07/18 07:47:43;;;;;;;3.78;1.10;;;23.80;98.70;;;;;;5032679;28;20037;-75
2023/07/18 07:50:09;;;;;;;3.45;1.20;;;24.40;99.90;;;;;;5039002;28;20155;-74
2023/07/18 07:52:38;;;;;;;2.75;1.33;;;24.80;98.10;;;;;;5032077;28;20041;-75
2023/07/18 07:55:04;;;;;;;1.98;1.05;;;25.30;98.00;;;;;;5032363;28;20037;-75
2023/07/18 07:57:30;;;;;;;3.70;1.02;;;25.60;96.50;;;;;;5031042;28;19921;-76
2023/07/18 07:59:58;;;;;;;2.88;1.25;;;25.60;94.90;;;;;;5032636;28;20056;-75
2023/07/18 08:02:27;;;;;;;2.50;1.05;;;25.90;95.30;;;;;;5032153;28;20041;-77
2023/07/18 08:04:55;;;;;;;2.30;1.08;;;26.10;94.30;;;;;;5032561;28;20041;-76
2023/07/18 08:07:24;;;;;;;3.05;1.35;;;26.00;94.90;;;;;;5031505;28;20493;-77
2023/07/18 08:09:52;;;;;;;2.40;0.98;;;26.30;94.80;;;;;;5030419;28;20049;-77
2023/07/18 08:12:20;;;;;;;2.40;1.00;;;25.60;94.90;;;;;;5031367;28;20038;-77
2023/07/18 08:14:46;;;;;;;3.53;1.10;;;25.90;94.10;;;;;;5031114;28;20061;-74
2023/07/18 08:17:12;;;;;;;3.40;1.10;;;25.40;94.40;;;;;;5031971;28;20046;-75
2023/07/18 08:19:37;;;;;;;3.42;1.10;;;25.50;94.70;;;;;;5032252;28;20429;-76
2023/07/18 08:22:03;;;;;;;3.50;1.17;;;25.60;94.80;;;;;;5033850;28;20053;-76
2023/07/18 08:24:30;;;;;;;2.72;1.05;;;26.00;94.60;;;;;;5045979;28;20045;-74
2023/07/18 08:26:57;;;;;;;2.78;0.93;;;25.70;93.50;;;;;;5048139;28;20059;-75
2023/07/18 08:29:28;;;;;;;2.45;1.10;;;25.20;93.70;;;;;;5047357;28;20084;-73
2023/07/18 08:31:56;;;;;;;4.25;1.20;;;25.20;94.50;;;;;;5047387;28;20090;-75
2023/07/18 08:34:22;;;;;;;3.28;1.38;;;25.40;94.30;;;;;;5050161;28;20040;-74
2023/07/18 08:36:48;;;;;;;3.10;1.15;;;25.10;93.50;;;;;;5041115;28;20053;-74
2023/07/18 08:39:15;;;;;;;2.92;1.20;;;24.80;93.90;;;;;;5047570;28;20140;-75
2023/07/18 08:41:43;;;;;;;3.72;1.00;;;24.70;94.60;;;;;;5040823;28;20057;-75
2023/07/18 08:44:12;;;;;;;3.40;1.10;;;24.50;94.40;;;;;;5039648;28;20060;-74
2023/07/18 08:46:39;;;;;;;3.80;1.10;;;24.40;94.70;;;;;;5035844;28;20478;-75
2023/07/18 08:49:06;;;;;;;3.70;1.50;;;24.20;95.00;;;;;;5044000;28;20064;-75
2023/07/18 08:51:32;;;;;;;2.55;1.10;;;23.90;95.20;;;;;;5035267;28;20045;-76
2023/07/18 08:53:58;;;;;;;3.85;1.42;;;23.80;95.70;;;;;;5034811;28;20397;-76
2023/07/18 08:56:25;;;;;;;4.25;1.42;;;23.80;95.70;;;;;;5041014;28;20037;-75
2023/07/18 08:58:51;;;;;;;5.13;1.40;;;23.80;95.70;;;;;;5035948;28;20049;-75
2023/07/18 09:01:16;;;;;;;4.88;1.30;;;23.80;95.80;;;;;;5036011;28;20068;-75
2023/07/18 09:03:42;;;;;;;4.13;1.38;;;24.00;95.80;;;;;;5035276;28;20117;-75
2023/07/18 09:06:21;;;;;;;3.75;1.40;;;23.90;95.10;;;;;;5045680;28;20041;-76
2023/07/18 09:08:47;;;;;;;4.20;1.38;;;23.50;95.30;;;;;;5054134;28;20041;-75
2023/07/18 09:11:18;;;;;;;3.40;1.40;;;23.30;96.30;;;;;;5051605;28;20026;-76
2023/07/18 09:13:44;;;;;;;5.43;1.67;;;23.90;95.90;;;;;;5049448;28;20069;-76
2023/07/18 09:16:20;;;;;;;4.80;1.58;;;24.90;94.90;;;;;;5038493;28;20512;-76
2023/07/18 09:18:50;;;;;;;4.57;1.40;;;25.70;94.50;;;;;;5035608;28;20139;-76
2023/07/18 09:21:16;;;;;;;5.82;1.60;;;26.20;94.40;;;;;;5034776;28;20118;-75
2023/07/18 09:23:43;;;;;;;7.78;1.70;;;26.50;93.30;;;;;;5034045;28;20045;-78
2023/07/18 09:26:13;;;;;;;6.68;2.13;;;26.30;93.10;;;;;;5034050;28;20056;-72
2023/07/18 09:28:39;;;;;;;8.40;1.80;;;26.00;92.70;;;;;;5033323;28;20068;-72
2023/07/18 09:31:26;;;;;;;7.25;1.80;;;25.30;94.00;;;;;;5034048;28;20072;-72
2023/07/18 09:33:54;;;;;;;6.18;1.70;;;25.00;94.20;;;;;;5034034;28;20156;-74
2023/07/18 09:36:24;;;;;;;8.10;1.80;;;24.70;93.80;;;;;;5033973;28;20059;-73
2023/07/18 09:38:51;;;;;;;7.00;1.70;;;24.50;94.50;;;;;;5033670;28;20041;-74
2023/07/18 09:41:19;;;;;;;7.57;1.52;;;24.90;95.30;;;;;;5037506;28;20099;-73
2023/07/18 09:43:45;;;;;;;4.80;1.48;;;25.30;94.60;;;;;;5046517;28;20565;-73
2023/07/18 09:46:13;;;;;;;4.80;1.63;;;25.30;93.90;;;;;;5044434;28;20552;-74
2023/07/18 09:48:40;;;;;;;8.15;1.65;;;25.50;93.50;;;;;;5051350;28;20033;-72
2023/07/18 09:51:13;;;;;;;5.53;1.70;;;26.00;93.70;;;;;;5048355;28;20057;-73
2023/07/18 09:53:40;;;;;;;5.35;1.48;;;26.70;92.80;;;;;;5051505;28;20041;-75
2023/07/18 09:56:08;;;;;;;5.28;1.45;;;27.20;92.70;;;;;;5049559;28;20171;-74
2023/07/18 09:58:39;;;;;;;5.85;1.80;;;27.80;92.30;;;;;;5038766;28;20109;-75
2023/07/18 10:01:20;;;;;;;6.43;1.60;;;27.60;91.70;;;;;;5038869;28;20033;-74
2023/07/18 10:03:52;;;;;;;6.85;1.70;;;27.40;91.50;;;;;;5048552;28;20488;-74
2023/07/18 10:06:18;;;;;;;7.05;1.80;;;27.40;91.50;;;;;;5037546;28;20052;-75
2023/07/18 10:08:45;;;;;;;6.13;2.50;;;27.90;91.60;;;;;;5031764;28;20132;-77
2023/07/18 10:11:11;;;;;;;6.93;1.92;;;28.20;90.70;;;;;;5050936;22;20512;-75
2023/07/18 10:13:55;;;;;;;4.93;1.50;;;28.50;91.40;;;;;;5039016;28;20103;-76
2023/07/18 10:16:27;;;;;;;4.28;1.60;;;28.50;91.30;;;;;;5045582;28;20170;-73
2023/07/18 10:18:53;;;;;;;6.80;1.95;;;28.20;91.30;;;;;;5048173;28;20073;-74
2023/07/18 10:21:30;;;;;;;7.13;2.17;;;28.10;92.10;;;;;;5042285;28;20054;-74
2023/07/18 10:24:15;;;;;;;6.60;1.67;;;28.40;92.30;;;;;;5034561;28;20045;-75
2023/07/18 10:26:41;;;;;;;5.82;1.92;;;28.60;91.40;;;;;;5050138;28;20053;-75
2023/07/18 10:29:10;;;;;;;8.38;1.80;;;29.00;91.80;;;;;;5052608;28;20059;-74
2023/07/18 10:31:36;;;;;;;6.65;1.77;;;29.20;92.20;;;;;;5051394;28;20488;-75
2023/07/18 10:34:09;;;;;;;8.02;2.10;;;29.10;91.40;;;;;;5053464;28;20033;-75
2023/07/18 10:36:36;;;;;;;6.85;1.75;;;28.50;91.40;;;;;;5052052;28;20033;-75
2023/07/18 10:39:08;;;;;;;4.53;1.70;;;28.50;90.90;;;;;;5044458;28;20047;-73
2023/07/18 10:41:35;;;;;;;7.20;2.10;;;28.30;91.50;;;;;;5043516;28;20037;-74
2023/07/18 10:44:01;;;;;;;5.32;1.80;;;28.20;91.30;;;;;;5044423;28;20057;-73
2023/07/18 10:46:38;;;;;;;5.72;1.60;;;28.10;92.80;;;;;;5034759;28;20048;-74
2023/07/18 10:49:04;;;;;;;7.55;1.98;;;27.80;92.30;;;;;;5039452;28;20107;-74
2023/07/18 10:51:33;;;;;;;6.78;1.77;;;27.90;92.30;;;;;;5048601;28;20132;-74
2023/07/18 10:54:04;;;;;;;6.30;1.70;;;27.90;91.80;;;;;;5037519;28;20042;-74
2023/07/18 10:56:29;;;;;;;5.30;1.20;;;27.50;92.20;;;;;;5040274;28;20049;-75
2023/07/18 10:58:56;;;;;;;4.38;1.40;;;27.30;92.40;;;;;;5039966;28;20034;-75
2023/07/18 11:01:26;;;;;;;5.72;1.65;;;27.10;92.60;;;;;;5041803;28;20083;-75
2023/07/18 11:03:52;;;;;;;4.53;1.80;;;26.80;92.80;;;;;;5050766;28;20045;-75
2023/07/18 11:06:21;;;;;;;6.78;1.70;;;26.30;93.30;;;;;;5044894;28;20048;-76
2023/07/18 11:08:47;;;;;;;6.57;2.30;;;26.00;93.80;;;;;;5043814;28;20053;-74
2023/07/18 11:11:15;;;;;;;6.95;1.60;;;25.70;94.50;;;;;;5049205;28;20136;-74
2023/07/18 11:13:44;;;;;;;5.93;1.70;;;25.90;94.80;;;;;;5050091;28;20045;-79
2023/07/18 11:16:16;;;;;;;8.98;2.05;;;26.00;95.10;;;;;;5048608;28;20136;-77
2023/07/18 11:18:44;;;;;;;6.38;1.75;;;26.20;94.60;;;;;;5040597;28;20488;-75
2023/07/18 11:21:11;;;;;;;8.52;1.90;;;26.40;94.30;;;;;;5042907;28;20128;-78
2023/07/18 11:23:38;;;;;;;6.38;2.17;;;26.90;93.80;;;;;;5041951;28;20037;-78
2023/07/18 11:26:30;;;;;;;6.40;1.70;;;27.40;93.70;;;;;;5036738;28;20049;-77
2023/07/18 11:28:59;;;;;;;6.75;1.80;;;27.50;93.70;;;;;;5034596;28;20107;-77
2023/07/18 11:31:38;;;;;;;5.40;1.80;;;27.30;93.60;;;;;;5041343;28;20440;-75
2023/07/18 11:34:05;;;;;;;9.98;2.00;;;27.20;93.70;;;;;;5034970;28;20526;-76
2023/07/18 11:36:33;;;;;;;6.85;2.38;;;27.40;93.40;;;;;;5049719;28;20072;-76
2023/07/18 11:39:06;;;;;;;7.57;2.10;;;27.70;93.80;;;;;;5050703;28;20040;-76
2023/07/18 11:41:34;;;;;;;7.40;2.05;;;27.80;93.30;;;;;;5042434;28;20048;-77
2023/07/18 11:44:02;;;;;;;7.55;1.80;;;27.60;92.80;;;;;;5041500;28;20101;-79
2023/07/18 11:46:37;;;;;;;6.82;2.50;;;27.10;92.60;;;;;;5048259;28;20490;-79
2023/07/18 11:49:03;;;;;;;5.95;1.90;;;26.80;93.20;;;;;;5042984;28;20049;-79
2023/07/18 11:51:31;;;;;;;7.88;2.08;;;26.40;93.70;;;;;;5042359;28;20045;-80
2023/07/18 11:53:59;;;;;;;8.65;2.20;;;26.00;94.30;;;;;;5036936;28;20481;-78
2023/07/18 11:56:24;;;;;;;7.38;2.50;;;25.90;94.60;;;;;;5047167;28;20045;-74
2023/07/18 11:58:50;;;;;;;8.35;2.10;;;25.80;94.90;;;;;;5035727;28;20071;-74
2023/07/18 12:01:16;;;;;;;10.05;2.13;;;25.70;95.40;;;;;;5046896;28;20139;-76
2023/07/18 12:03:41;;;;;;;9.88;2.55;;;25.60;95.50;;;;;;5043061;28;20053;-76
2023/07/18 12:06:07;;;;;;;8.15;2.65;;;25.50;95.70;;;;;;5033056;28;20053;-76
2023/07/18 12:08:32;;;;;;;6.40;1.85;;;25.50;95.80;;;;;;5048772;28;20059;-80
2023/07/18 12:10:58;;;;;;;4.78;1.90;;;25.60;95.30;;;;;;5044475;28;20546;-76
2023/07/18 12:13:25;;;;;;;4.35;1.50;;;25.80;95.20;;;;;;5035124;28;20041;-76
2023/07/18 12:15:50;;;;;;;8.02;2.10;;;25.80;94.80;;;;;;5031237;28;20049;-75
2023/07/18 12:18:16;;;;;;;6.15;2.00;;;25.80;94.20;;;;;;5044970;28;20195;-76
2023/07/18 12:20:42;;;;;;;5.15;1.85;;;25.70;93.90;;;;;;5050760;28;20029;-76
2023/07/18 12:23:08;;;;;;;7.32;2.25;;;25.50;94.30;;;;;;5038580;28;20135;-76
2023/07/18 12:25:34;;;;;;;7.60;2.10;;;25.30;94.40;;;;;;5048372;28;20400;-76
2023/07/18 12:28:00;;;;;;;8.35;2.30;;;25.50;94.60;;;;;;5032097;28;20054;-76
2023/07/18 12:30:30;;;;;;;5.55;2.08;;;25.60;94.30;;;;;;5030616;28;20052;-75
2023/07/18 12:32:59;;;;;;;6.20;1.92;;;25.50;94.90;;;;;;5030459;28;20404;-77
2023/07/18 12:35:26;;;;;;;8.20;2.40;;;25.50;94.80;;;;;;5047709;28;20052;-76
2023/07/18 12:37:54;;;;;;;6.55;2.03;;;25.60;94.80;;;;;;5051266;28;20053;-76
2023/07/18 12:40:21;;;;;;;7.57;2.03;;;25.60;94.80;;;;;;5051231;28;20045;-75
2023/07/18 12:42:46;;;;;;;7.03;2.20;;;25.50;94.60;;;;;;5050314;28;20493;-73
2023/07/18 12:45:12;;;;;;;6.40;2.17;;;25.50;94.80;;;;;;5049127;28;20043;-74
2023/07/18 12:47:38;;;;;;;6.35;2.05;;;25.60;95.00;;;;;;5051158;28;20144;-78